createdAt,value
2023-03-22T00:00:01.706Z,1001.7917732200216
2023-03-22T00:15:01.469Z,1001.6199600660507
2023-03-22T00:30:02.165Z,1001.5623706980668
2023-03-22T00:45:01.962Z,1001.5102626613312
2023-03-22T01:00:01.686Z,1001.4212548471302
2023-03-22T01:15:01.360Z,1001.1740501557798
2023-03-22T01:30:02.044Z,1001.1918039659362
2023-03-22T01:45:01.748Z,1001.0601966630795
2023-03-22T02:00:01.490Z,1000.856657283553
2023-03-22T02:15:02.257Z,1000.71771970387
2023-03-22T02:30:02.026Z,1000.6646307418106
2023-03-22T02:45:01.749Z,1000.5840534016575
2023-03-22T03:00:01.435Z,1000.3901983738193
2023-03-22T03:15:02.188Z,1000.2702467763402
2023-03-22T03:30:02.220Z,1000.2331164605466
2023-03-22T03:45:01.932Z,1000.05346084056
2023-03-22T04:00:01.612Z,999.9616087860641
2023-03-22T04:15:02.384Z,999.9747146437295
2023-03-22T04:30:02.193Z,999.8282566412079
2023-03-22T04:45:01.875Z,999.7759427148676
2023-03-22T05:00:01.727Z,999.562484792903
2023-03-22T05:15:02.362Z,999.5964044438251
2023-03-22T05:30:02.152Z,999.4400386535615
2023-03-22T05:45:01.800Z,999.3838562368858
2023-03-22T06:00:02.442Z,999.3946698812674
2023-03-22T06:15:02.084Z,999.3855763469459
2023-03-22T06:30:01.866Z,999.2729374620868
2023-03-22T06:45:01.542Z,999.2491928007527
2023-03-22T07:00:02.169Z,999.0509773823886
2023-03-22T07:15:01.804Z,999.0409190089081
2023-03-22T07:30:01.501Z,998.9208215538948
2023-03-22T07:45:02.162Z,998.8902615863481
2023-03-22T08:00:01.798Z,998.8570782142774
2023-03-22T08:15:01.478Z,998.8812706556664
2023-03-22T08:30:02.109Z,998.6558297772021
2023-03-22T08:45:01.748Z,998.6576531735025
2023-03-22T09:00:01.389Z,998.5684096160095
2023-03-22T09:15:02.066Z,998.6327259627693
2023-03-22T09:30:01.740Z,998.4560645701031
2023-03-22T09:45:01.405Z,998.5949228160996
2023-03-22T10:00:02.085Z,998.5478744766934
2023-03-22T10:15:01.738Z,998.6222613039129
2023-03-22T10:30:01.395Z,998.639163792363
2023-03-22T10:45:02.030Z,998.5249751292245
2023-03-22T11:00:01.670Z,998.3445448724727
2023-03-22T11:15:01.335Z,998.3499570109078
2023-03-22T11:30:02.253Z,998.6113270884321
2023-03-22T11:45:01.935Z,998.409779860394
2023-03-22T12:00:01.606Z,998.1421941555578
2023-03-22T12:15:02.216Z,998.3515225272473
2023-03-22T12:30:01.927Z,998.2434092660702
2023-03-22T12:45:05.110Z,998.2922700666859
2023-03-22T13:00:02.449Z,998.4905383966136
2023-03-22T13:15:02.129Z,998.6224460574942
2023-03-22T13:30:01.824Z,998.4814240647751
2023-03-22T13:45:01.508Z,998.4306584840192
2023-03-22T14:00:10.358Z,997.997653573471
2023-03-22T14:15:02.093Z,997.9419110178497
2023-03-22T15:00:01.788Z,998.1219981437711
2023-03-22T15:15:01.898Z,998.2708261326029
2023-03-22T15:30:01.550Z,998.3522789699223
2023-03-22T15:45:02.195Z,998.2674623618665
2023-03-22T16:00:01.817Z,998.2267942562945
2023-03-22T16:15:01.456Z,998.016589710986
2023-03-22T16:30:02.109Z,998.2973963202568
2023-03-22T16:45:01.704Z,998.1471933746216
2023-03-22T17:00:02.376Z,998.2390547119581
2023-03-22T17:15:02.020Z,998.0211861698635
2023-03-22T17:30:01.704Z,997.9294810358501
2023-03-22T17:45:01.412Z,997.9101819671235
2023-03-22T18:00:02.057Z,997.7848730821087
2023-03-22T18:15:01.802Z,997.9311273380424
2023-03-22T18:30:01.500Z,997.462095085635
2023-03-22T18:45:02.171Z,997.4125992552432
2023-03-22T19:00:01.835Z,997.6152773556479
2023-03-22T19:15:31.896Z,997.4603297475107
2023-03-22T19:30:01.926Z,997.4556473157012
2023-03-22T19:45:01.630Z,997.2643227249791
2023-03-22T20:00:43.897Z,997.0554264794697
2023-03-22T20:15:02.002Z,997.0313707961378
2023-03-22T20:30:01.678Z,996.7648239488661
2023-03-22T20:45:02.363Z,996.7785055184919
2023-03-22T21:00:02.000Z,996.841594847733
2023-03-22T21:15:01.723Z,996.6690241562463
2023-03-22T21:30:02.416Z,996.6082628459565
2023-03-22T21:45:02.190Z,996.6160393234738
2023-03-22T22:00:01.860Z,996.4045976674267
2023-03-22T22:15:01.734Z,996.4062046441243
2023-03-22T22:30:01.660Z,996.2553347962573
2023-03-22T22:45:02.379Z,996.216293706197
2023-03-22T23:00:02.063Z,996.1359482674588
2023-03-22T23:15:01.832Z,995.8741479693948
2023-03-22T23:30:01.559Z,995.8809679322154
2023-03-22T23:45:01.579Z,995.7357826618872
